sensor_id;sensor_type;location;lat;lon;timestamp;pressure;altitude;pressure_sealevel;temperature;humidity
48652;BME280;34442;52.362;-1.302;2023-04-25T00:01:14;100294.69;;;6.08;100.00
48652;BME280;34442;52.362;-1.302;2023-04-25T00:03:40;100297.25;;;6.02;100.00
48652;BME280;34442;52.362;-1.302;2023-04-25T00:06:06;100295.13;;;5.97;100.00
48652;BME280;34442;52.362;-1.302;2023-04-25T00:08:32;100300.63;;;5.95;100.00
48652;BME280;34442;52.362;-1.302;2023-04-25T00:10:58;100304.63;;;5.91;100.00
48652;BME280;34442;52.362;-1.302;2023-04-25T00:13:26;100300.50;;;5.89;100.00
48652;BME280;34442;52.362;-1.302;2023-04-25T00:15:52;100306.47;;;5.91;100.00
48652;BME280;34442;52.362;-1.302;2023-04-25T00:18:19;100293.66;;;5.63;100.00
48652;BME280;34442;52.362;-1.302;2023-04-25T00:20:45;100297.06;;;5.80;100.00
48652;BME280;34442;52.362;-1.302;2023-04-25T00:23:16;100294.69;;;5.85;100.00
48652;BME280;34442;52.362;-1.302;2023-04-25T00:25:49;100295.50;;;5.86;100.00
48652;BME280;34442;52.362;-1.302;2023-04-25T00:28:17;100295.03;;;5.82;100.00
48652;BME280;34442;52.362;-1.302;2023-04-25T00:30:43;100294.75;;;5.77;100.00
48652;BME280;34442;52.362;-1.302;2023-04-25T00:33:09;100295.75;;;5.76;100.00
48652;BME280;34442;52.362;-1.302;2023-04-25T00:35:35;100289.28;;;5.70;100.00
48652;BME280;34442;52.362;-1.302;2023-04-25T00:38:01;100295.91;;;5.52;100.00
48652;BME280;34442;52.362;-1.302;2023-04-25T00:40:26;100296.50;;;5.62;100.00
48652;BME280;34442;52.362;-1.302;2023-04-25T00:42:53;100301.19;;;5.60;100.00
48652;BME280;34442;52.362;-1.302;2023-04-25T00:45:19;100298.19;;;5.55;100.00
48652;BME280;34442;52.362;-1.302;2023-04-25T00:47:45;100305.56;;;5.53;100.00
48652;BME280;34442;52.362;-1.302;2023-04-25T00:50:11;100304.56;;;5.54;100.00
48652;BME280;34442;52.362;-1.302;2023-04-25T00:52:41;100303.09;;;5.43;100.00
48652;BME280;34442;52.362;-1.302;2023-04-25T00:55:08;100300.56;;;5.50;100.00
48652;BME280;34442;52.362;-1.302;2023-04-25T00:57:35;100301.75;;;5.47;100.00
48652;BME280;34442;52.362;-1.302;2023-04-25T01:00:01;100307.25;;;5.45;100.00
48652;BME280;34442;52.362;-1.302;2023-04-25T01:02:27;100303.63;;;5.38;100.00
48652;BME280;34442;52.362;-1.302;2023-04-25T01:04:52;100306.28;;;5.38;100.00
48652;BME280;34442;52.362;-1.302;2023-04-25T01:07:18;100310.78;;;5.38;100.00
48652;BME280;34442;52.362;-1.302;2023-04-25T01:09:44;100312.16;;;5.34;100.00
48652;BME280;34442;52.362;-1.302;2023-04-25T01:12:09;100311.31;;;5.33;100.00
48652;BME280;34442;52.362;-1.302;2023-04-25T01:14:34;100312.19;;;5.26;100.00
48652;BME280;34442;52.362;-1.302;2023-04-25T01:17:00;100310.34;;;5.26;100.00
48652;BME280;34442;52.362;-1.302;2023-04-25T01:19:26;100307.03;;;5.24;100.00
48652;BME280;34442;52.362;-1.302;2023-04-25T01:21:52;100318.53;;;5.25;100.00
48652;BME280;34442;52.362;-1.302;2023-04-25T01:24:17;100318.22;;;5.19;100.00
48652;BME280;34442;52.362;-1.302;2023-04-25T01:26:43;100321.41;;;5.15;100.00
48652;BME280;34442;52.362;-1.302;2023-04-25T01:29:19;100323.28;;;5.06;100.00
48652;BME280;34442;52.362;-1.302;2023-04-25T01:31:45;100319.59;;;5.07;100.00
48652;BME280;34442;52.362;-1.302;2023-04-25T01:34:11;100322.56;;;5.12;100.00
48652;BME280;34442;52.362;-1.302;2023-04-25T01:36:37;100324.22;;;5.13;100.00
48652;BME280;34442;52.362;-1.302;2023-04-25T01:39:03;100327.91;;;5.12;100.00
48652;BME280;34442;52.362;-1.302;2023-04-25T01:41:28;100327.09;;;5.12;100.00
48652;BME280;34442;52.362;-1.302;2023-04-25T01:43:54;100323.94;;;5.08;100.00
48652;BME280;34442;52.362;-1.302;2023-04-25T01:46:20;100329.06;;;5.10;100.00
48652;BME280;34442;52.362;-1.302;2023-04-25T01:48:45;100322.44;;;5.06;100.00
48652;BME280;34442;52.362;-1.302;2023-04-25T01:51:12;100335.44;;;5.01;100.00
48652;BME280;34442;52.362;-1.302;2023-04-25T01:53:38;100332.78;;;5.01;100.00
48652;BME280;34442;52.362;-1.302;2023-04-25T01:56:04;100329.97;;;4.94;100.00
48652;BME280;34442;52.362;-1.302;2023-04-25T01:58:29;100340.47;;;4.95;100.00
48652;BME280;34442;52.362;-1.302;2023-04-25T02:00:55;100339.13;;;4.91;100.00
48652;BME280;34442;52.362;-1.302;2023-04-25T02:03:20;100339.78;;;4.93;100.00
48652;BME280;34442;52.362;-1.302;2023-04-25T02:05:46;100335.16;;;4.87;100.00
48652;BME280;34442;52.362;-1.302;2023-04-25T02:08:11;100334.00;;;4.90;100.00
48652;BME280;34442;52.362;-1.302;2023-04-25T02:10:37;100337.66;;;4.81;100.00
48652;BME280;34442;52.362;-1.302;2023-04-25T02:13:02;100338.66;;;4.80;100.00
48652;BME280;34442;52.362;-1.302;2023-04-25T02:15:29;100348.16;;;4.82;100.00
48652;BME280;34442;52.362;-1.302;2023-04-25T02:17:55;100346.31;;;4.83;100.00
48652;BME280;34442;52.362;-1.302;2023-04-25T02:20:21;100339.50;;;4.80;100.00
48652;BME280;34442;52.362;-1.302;2023-04-25T02:22:47;100338.47;;;4.81;100.00
48652;BME280;34442;52.362;-1.302;2023-04-25T02:25:13;100345.50;;;4.74;100.00
48652;BME280;34442;52.362;-1.302;2023-04-25T02:27:38;100345.66;;;4.72;100.00
48652;BME280;34442;52.362;-1.302;2023-04-25T02:30:05;100346.16;;;4.68;100.00
48652;BME280;34442;52.362;-1.302;2023-04-25T02:32:32;100340.03;;;4.67;100.00
48652;BME280;34442;52.362;-1.302;2023-04-25T02:34:57;100343.53;;;4.60;100.00
48652;BME280;34442;52.362;-1.302;2023-04-25T02:37:29;100344.34;;;4.60;100.00
48652;BME280;34442;52.362;-1.302;2023-04-25T02:39:54;100343.69;;;4.58;100.00
48652;BME280;34442;52.362;-1.302;2023-04-25T02:42:20;100348.50;;;4.63;100.00
48652;BME280;34442;52.362;-1.302;2023-04-25T02:44:45;100349.84;;;4.59;100.00
48652;BME280;34442;52.362;-1.302;2023-04-25T02:47:10;100347.03;;;4.52;100.00
48652;BME280;34442;52.362;-1.302;2023-04-25T02:49:36;100351.03;;;4.48;100.00
48652;BME280;34442;52.362;-1.302;2023-04-25T02:52:01;100362.03;;;4.45;100.00
48652;BME280;34442;52.362;-1.302;2023-04-25T02:54:26;100353.03;;;4.46;100.00
48652;BME280;34442;52.362;-1.302;2023-04-25T02:56:52;100355.00;;;4.44;100.00
48652;BME280;34442;52.362;-1.302;2023-04-25T02:59:17;100355.50;;;4.39;100.00
48652;BME280;34442;52.362;-1.302;2023-04-25T03:01:43;100357.53;;;4.37;100.00
48652;BME280;34442;52.362;-1.302;2023-04-25T03:04:08;100359.38;;;4.37;100.00
48652;BME280;34442;52.362;-1.302;2023-04-25T03:06:33;100351.19;;;4.30;100.00
48652;BME280;34442;52.362;-1.302;2023-04-25T03:08:59;100356.19;;;4.25;100.00
48652;BME280;34442;52.362;-1.302;2023-04-25T03:11:25;100358.34;;;4.21;100.00
48652;BME280;34442;52.362;-1.302;2023-04-25T03:13:50;100365.00;;;4.17;100.00
48652;BME280;34442;52.362;-1.302;2023-04-25T03:16:16;100366.84;;;4.17;100.00
48652;BME280;34442;52.362;-1.302;2023-04-25T03:18:41;100363.50;;;4.23;100.00
48652;BME280;34442;52.362;-1.302;2023-04-25T03:21:07;100373.16;;;4.16;100.00
48652;BME280;34442;52.362;-1.302;2023-04-25T03:23:32;100370.16;;;4.19;100.00
48652;BME280;34442;52.362;-1.302;2023-04-25T03:25:58;100374.81;;;4.17;100.00
48652;BME280;34442;52.362;-1.302;2023-04-25T03:28:23;100375.66;;;4.17;100.00
48652;BME280;34442;52.362;-1.302;2023-04-25T03:30:49;100372.16;;;4.17;100.00
48652;BME280;34442;52.362;-1.302;2023-04-25T03:33:14;100380.13;;;4.17;100.00
48652;BME280;34442;52.362;-1.302;2023-04-25T03:35:40;100379.47;;;4.15;100.00
48652;BME280;34442;52.362;-1.302;2023-04-25T03:38:05;100389.59;;;4.11;100.00
48652;BME280;34442;52.362;-1.302;2023-04-25T03:40:30;100387.59;;;4.05;100.00
48652;BME280;34442;52.362;-1.302;2023-04-25T03:42:56;100399.38;;;4.03;100.00
48652;BME280;34442;52.362;-1.302;2023-04-25T03:45:21;100395.06;;;4.02;100.00
48652;BME280;34442;52.362;-1.302;2023-04-25T03:47:47;100400.41;;;4.02;100.00
48652;BME280;34442;52.362;-1.302;2023-04-25T03:50:12;100401.72;;;3.97;100.00
48652;BME280;34442;52.362;-1.302;2023-04-25T03:52:37;100397.06;;;3.91;100.00
48652;BME280;34442;52.362;-1.302;2023-04-25T03:55:03;100399.53;;;3.85;100.00
48652;BME280;34442;52.362;-1.302;2023-04-25T03:57:29;100402.19;;;3.85;100.00
48652;BME280;34442;52.362;-1.302;2023-04-25T03:59:55;100402.19;;;3.85;100.00
48652;BME280;34442;52.362;-1.302;2023-04-25T04:02:20;100410.38;;;3.91;100.00
48652;BME280;34442;52.362;-1.302;2023-04-25T04:04:46;100407.41;;;4.68;100.00
48652;BME280;34442;52.362;-1.302;2023-04-25T04:07:11;100408.91;;;4.79;99.77
48652;BME280;34442;52.362;-1.302;2023-04-25T04:09:36;100398.56;;;4.84;99.20
48652;BME280;34442;52.362;-1.302;2023-04-25T04:12:02;100408.59;;;4.82;98.62
48652;BME280;34442;52.362;-1.302;2023-04-25T04:14:28;100407.91;;;4.80;98.52
48652;BME280;34442;52.362;-1.302;2023-04-25T04:16:53;100421.53;;;4.85;97.86
48652;BME280;34442;52.362;-1.302;2023-04-25T04:19:18;100415.06;;;4.87;97.82
48652;BME280;34442;52.362;-1.302;2023-04-25T04:21:44;100411.56;;;4.79;97.59
48652;BME280;34442;52.362;-1.302;2023-04-25T04:24:09;100401.94;;;4.78;98.02
48652;BME280;34442;52.362;-1.302;2023-04-25T04:26:35;100405.75;;;4.75;98.20
48652;BME280;34442;52.362;-1.302;2023-04-25T04:29:02;100409.41;;;4.74;97.93
48652;BME280;34442;52.362;-1.302;2023-04-25T04:31:27;100409.06;;;4.77;97.71
48652;BME280;34442;52.362;-1.302;2023-04-25T04:33:53;100407.09;;;5.35;94.14
48652;BME280;34442;52.362;-1.302;2023-04-25T04:36:19;100398.31;;;5.18;94.88
48652;BME280;34442;52.362;-1.302;2023-04-25T04:38:48;100407.56;;;4.83;96.44
48652;BME280;34442;52.362;-1.302;2023-04-25T04:41:13;100402.56;;;4.80;96.67
48652;BME280;34442;52.362;-1.302;2023-04-25T04:43:39;100402.75;;;4.70;97.07
48652;BME280;34442;52.362;-1.302;2023-04-25T04:46:04;100402.25;;;4.66;97.19
48652;BME280;34442;52.362;-1.302;2023-04-25T04:48:33;100408.41;;;4.59;98.20
48652;BME280;34442;52.362;-1.302;2023-04-25T04:50:59;100417.56;;;4.64;97.41
48652;BME280;34442;52.362;-1.302;2023-04-25T04:53:25;100425.41;;;4.66;97.03
48652;BME280;34442;52.362;-1.302;2023-04-25T04:55:50;100428.72;;;4.60;97.57
48652;BME280;34442;52.362;-1.302;2023-04-25T04:58:16;100428.06;;;4.58;97.42
48652;BME280;34442;52.362;-1.302;2023-04-25T05:00:42;100433.72;;;4.63;97.28
48652;BME280;34442;52.362;-1.302;2023-04-25T05:03:07;100434.03;;;4.60;97.50
48652;BME280;34442;52.362;-1.302;2023-04-25T05:05:32;100435.53;;;4.62;97.06
48652;BME280;34442;52.362;-1.302;2023-04-25T05:07:58;100438.22;;;4.62;96.60
48652;BME280;34442;52.362;-1.302;2023-04-25T05:10:24;100437.88;;;4.57;97.08
48652;BME280;34442;52.362;-1.302;2023-04-25T05:12:49;100435.88;;;4.59;97.38
48652;BME280;34442;52.362;-1.302;2023-04-25T05:15:17;100440.69;;;4.64;97.04
48652;BME280;34442;52.362;-1.302;2023-04-25T05:17:43;100439.88;;;4.63;96.81
48652;BME280;34442;52.362;-1.302;2023-04-25T05:20:08;100450.00;;;4.60;96.95
48652;BME280;34442;52.362;-1.302;2023-04-25T05:22:34;100454.69;;;4.58;97.45
48652;BME280;34442;52.362;-1.302;2023-04-25T05:25:00;100447.84;;;4.55;96.95
48652;BME280;34442;52.362;-1.302;2023-04-25T05:27:26;100443.53;;;4.62;96.96
48652;BME280;34442;52.362;-1.302;2023-04-25T05:29:51;100449.19;;;4.59;96.95
48652;BME280;34442;52.362;-1.302;2023-04-25T05:32:17;100451.34;;;4.64;96.76
48652;BME280;34442;52.362;-1.302;2023-04-25T05:34:43;100445.19;;;4.63;96.72
48652;BME280;34442;52.362;-1.302;2023-04-25T05:37:08;100449.00;;;4.69;96.99
48652;BME280;34442;52.362;-1.302;2023-04-25T05:39:34;100461.34;;;4.70;96.55
48652;BME280;34442;52.362;-1.302;2023-04-25T05:41:59;100462.31;;;4.77;96.54
48652;BME280;34442;52.362;-1.302;2023-04-25T05:44:26;100461.16;;;4.80;96.44
48652;BME280;34442;52.362;-1.302;2023-04-25T05:46:52;100464.50;;;4.82;96.27
48652;BME280;34442;52.362;-1.302;2023-04-25T05:49:17;100472.50;;;4.90;95.96
48652;BME280;34442;52.362;-1.302;2023-04-25T05:51:42;100474.66;;;4.94;95.54
48652;BME280;34442;52.362;-1.302;2023-04-25T05:54:08;100472.63;;;5.05;95.71
48652;BME280;34442;52.362;-1.302;2023-04-25T05:56:33;100483.59;;;5.10;95.56
48652;BME280;34442;52.362;-1.302;2023-04-25T05:58:59;100486.94;;;5.12;95.10
48652;BME280;34442;52.362;-1.302;2023-04-25T06:01:24;100498.75;;;5.26;95.39
48652;BME280;34442;52.362;-1.302;2023-04-25T06:03:50;100495.56;;;5.30;94.85
48652;BME280;34442;52.362;-1.302;2023-04-25T06:06:17;100485.91;;;5.29;94.57
48652;BME280;34442;52.362;-1.302;2023-04-25T06:08:43;100483.59;;;5.26;94.80
48652;BME280;34442;52.362;-1.302;2023-04-25T06:11:09;100476.25;;;5.36;94.76
48652;BME280;34442;52.362;-1.302;2023-04-25T06:13:34;100480.31;;;5.63;93.10
48652;BME280;34442;52.362;-1.302;2023-04-25T06:15:59;100483.94;;;5.23;95.04
48652;BME280;34442;52.362;-1.302;2023-04-25T06:18:25;100490.25;;;5.22;95.06
48652;BME280;34442;52.362;-1.302;2023-04-25T06:20:51;100493.78;;;5.22;95.39
48652;BME280;34442;52.362;-1.302;2023-04-25T06:23:16;100499.06;;;5.31;94.94
48652;BME280;34442;52.362;-1.302;2023-04-25T06:25:42;100496.78;;;5.19;95.76
48652;BME280;34442;52.362;-1.302;2023-04-25T06:28:07;100504.25;;;5.24;96.24
48652;BME280;34442;52.362;-1.302;2023-04-25T06:30:33;100504.22;;;5.40;95.36
48652;BME280;34442;52.362;-1.302;2023-04-25T06:32:58;100504.38;;;5.39;95.81
48652;BME280;34442;52.362;-1.302;2023-04-25T06:35:23;100512.53;;;5.45;95.78
48652;BME280;34442;52.362;-1.302;2023-04-25T06:37:49;100514.94;;;4.91;99.87
48652;BME280;34442;52.362;-1.302;2023-04-25T06:40:14;100510.44;;;4.76;100.00
48652;BME280;34442;52.362;-1.302;2023-04-25T06:42:40;100509.53;;;5.48;97.21
48652;BME280;34442;52.362;-1.302;2023-04-25T06:45:06;100515.16;;;5.70;95.65
48652;BME280;34442;52.362;-1.302;2023-04-25T06:47:31;100529.97;;;5.81;95.33
48652;BME280;34442;52.362;-1.302;2023-04-25T06:49:56;100525.41;;;5.89;95.07
48652;BME280;34442;52.362;-1.302;2023-04-25T06:52:22;100533.25;;;5.27;100.00
48652;BME280;34442;52.362;-1.302;2023-04-25T06:54:47;100530.59;;;5.11;100.00
48652;BME280;34442;52.362;-1.302;2023-04-25T06:57:12;100523.41;;;5.19;100.00
48652;BME280;34442;52.362;-1.302;2023-04-25T06:59:38;100522.91;;;5.24;100.00
48652;BME280;34442;52.362;-1.302;2023-04-25T07:02:03;100527.03;;;5.43;100.00
48652;BME280;34442;52.362;-1.302;2023-04-25T07:04:29;100522.88;;;5.48;100.00
48652;BME280;34442;52.362;-1.302;2023-04-25T07:06:55;100527.19;;;5.58;100.00
48652;BME280;34442;52.362;-1.302;2023-04-25T07:09:21;100528.78;;;5.75;100.00
48652;BME280;34442;52.362;-1.302;2023-04-25T07:11:46;100522.94;;;5.80;99.59
48652;BME280;34442;52.362;-1.302;2023-04-25T07:14:12;100534.41;;;5.88;99.36
48652;BME280;34442;52.362;-1.302;2023-04-25T07:16:37;100528.47;;;5.70;100.00
48652;BME280;34442;52.362;-1.302;2023-04-25T07:19:03;100538.09;;;5.87;100.00
48652;BME280;34442;52.362;-1.302;2023-04-25T07:21:28;100541.78;;;5.94;100.00
48652;BME280;34442;52.362;-1.302;2023-04-25T07:23:54;100545.09;;;5.88;99.97
48652;BME280;34442;52.362;-1.302;2023-04-25T07:26:19;100537.75;;;5.99;100.00
48652;BME280;34442;52.362;-1.302;2023-04-25T07:28:45;100551.38;;;6.12;100.00
48652;BME280;34442;52.362;-1.302;2023-04-25T07:31:11;100543.13;;;6.30;98.86
48652;BME280;34442;52.362;-1.302;2023-04-25T07:33:36;100549.69;;;6.19;99.61
48652;BME280;34442;52.362;-1.302;2023-04-25T07:36:02;100551.81;;;6.24;99.38
48652;BME280;34442;52.362;-1.302;2023-04-25T07:38:27;100552.59;;;6.32;98.88
48652;BME280;34442;52.362;-1.302;2023-04-25T07:40:53;100550.81;;;6.25;100.00
48652;BME280;34442;52.362;-1.302;2023-04-25T07:43:18;100559.44;;;6.35;99.41
48652;BME280;34442;52.362;-1.302;2023-04-25T07:45:44;100560.28;;;6.35;99.43
48652;BME280;34442;52.362;-1.302;2023-04-25T07:48:10;100566.94;;;6.39;98.81
48652;BME280;34442;52.362;-1.302;2023-04-25T07:50:35;100562.38;;;6.48;98.22
48652;BME280;34442;52.362;-1.302;2023-04-25T07:53:01;100561.94;;;6.67;97.35
48652;BME280;34442;52.362;-1.302;2023-04-25T07:55:26;100562.56;;;6.69;97.10
48652;BME280;34442;52.362;-1.302;2023-04-25T07:57:52;100568.84;;;7.08;95.29
48652;BME280;34442;52.362;-1.302;2023-04-25T08:00:17;100570.59;;;7.15;94.89
48652;BME280;34442;52.362;-1.302;2023-04-25T08:02:43;100570.28;;;7.33;94.60
48652;BME280;34442;52.362;-1.302;2023-04-25T08:05:09;100576.13;;;7.37;94.08
48652;BME280;34442;52.362;-1.302;2023-04-25T08:07:37;100580.03;;;7.49;93.25
48652;BME280;34442;52.362;-1.302;2023-04-25T08:10:05;100584.63;;;7.17;94.33
48652;BME280;34442;52.362;-1.302;2023-04-25T08:12:30;100583.06;;;7.61;92.26
48652;BME280;34442;52.362;-1.302;2023-04-25T08:14:56;100573.72;;;7.57;92.27
48652;BME280;34442;52.362;-1.302;2023-04-25T08:17:21;100582.28;;;7.37;92.93
48652;BME280;34442;52.362;-1.302;2023-04-25T08:19:46;100589.81;;;7.71;92.47
48652;BME280;34442;52.362;-1.302;2023-04-25T08:22:12;100595.09;;;7.94;90.49
48652;BME280;34442;52.362;-1.302;2023-04-25T08:24:37;100593.06;;;7.96;91.25
48652;BME280;34442;52.362;-1.302;2023-04-25T08:27:03;100588.09;;;8.23;89.38
48652;BME280;34442;52.362;-1.302;2023-04-25T08:29:28;100593.03;;;8.26;89.79
48652;BME280;34442;52.362;-1.302;2023-04-25T08:31:53;100593.06;;;7.96;90.31
48652;BME280;34442;52.362;-1.302;2023-04-25T08:34:19;100591.31;;;8.04;90.21
48652;BME280;34442;52.362;-1.302;2023-04-25T08:36:45;100583.09;;;8.05;89.45
48652;BME280;34442;52.362;-1.302;2023-04-25T08:39:11;100593.50;;;8.30;88.74
48652;BME280;34442;52.362;-1.302;2023-04-25T08:41:37;100585.03;;;8.41;87.94
48652;BME280;34442;52.362;-1.302;2023-04-25T08:44:03;100585.94;;;8.33;86.97
48652;BME280;34442;52.362;-1.302;2023-04-25T08:46:29;100590.09;;;8.21;86.95
48652;BME280;34442;52.362;-1.302;2023-04-25T08:49:00;100603.13;;;8.24;87.67
48652;BME280;34442;52.362;-1.302;2023-04-25T08:51:27;100592.88;;;8.28;87.89
48652;BME280;34442;52.362;-1.302;2023-04-25T08:54:09;100595.28;;;8.37;86.19
48652;BME280;34442;52.362;-1.302;2023-04-25T08:56:37;100586.59;;;8.50;87.29
48652;BME280;34442;52.362;-1.302;2023-04-25T08:59:03;100586.50;;;8.80;85.93
48652;BME280;34442;52.362;-1.302;2023-04-25T09:01:29;100585.94;;;8.84;85.78
48652;BME280;34442;52.362;-1.302;2023-04-25T09:03:57;100581.66;;;8.68;85.40
48652;BME280;34442;52.362;-1.302;2023-04-25T09:06:23;100588.44;;;8.86;85.98
48652;BME280;34442;52.362;-1.302;2023-04-25T09:08:50;100589.47;;;8.85;84.68
48652;BME280;34442;52.362;-1.302;2023-04-25T09:11:15;100592.03;;;8.93;84.96
48652;BME280;34442;52.362;-1.302;2023-04-25T09:13:41;100577.59;;;8.73;85.86
48652;BME280;34442;52.362;-1.302;2023-04-25T09:16:06;100582.31;;;8.92;85.31
48652;BME280;34442;52.362;-1.302;2023-04-25T09:18:35;100586.53;;;9.01;84.94
48652;BME280;34442;52.362;-1.302;2023-04-25T09:21:10;100581.03;;;9.31;80.76
48652;BME280;34442;52.362;-1.302;2023-04-25T09:23:47;100575.19;;;9.49;79.65
48652;BME280;34442;52.362;-1.302;2023-04-25T09:26:14;100585.69;;;9.43;82.60
48652;BME280;34442;52.362;-1.302;2023-04-25T09:28:40;100583.91;;;9.57;82.56
48652;BME280;34442;52.362;-1.302;2023-04-25T09:31:10;100575.69;;;9.59;82.19
48652;BME280;34442;52.362;-1.302;2023-04-25T09:33:36;100575.47;;;9.88;79.78
48652;BME280;34442;52.362;-1.302;2023-04-25T09:38:34;100572.41;;;9.98;75.33
48652;BME280;34442;52.362;-1.302;2023-04-25T09:41:06;100575.38;;;9.75;79.45
48652;BME280;34442;52.362;-1.302;2023-04-25T09:43:31;100574.44;;;9.61;77.96
48652;BME280;34442;52.362;-1.302;2023-04-25T09:45:56;100574.38;;;10.17;78.16
48652;BME280;34442;52.362;-1.302;2023-04-25T09:48:27;100578.03;;;10.44;77.76
48652;BME280;34442;52.362;-1.302;2023-04-25T09:51:13;100572.13;;;10.62;65.90
48652;BME280;34442;52.362;-1.302;2023-04-25T09:53:43;100577.97;;;10.31;73.40
48652;BME280;34442;52.362;-1.302;2023-04-25T09:56:10;100584.59;;;10.29;74.75
48652;BME280;34442;52.362;-1.302;2023-04-25T09:58:38;100574.38;;;9.83;75.53
48652;BME280;34442;52.362;-1.302;2023-04-25T10:01:05;100573.97;;;9.51;75.44
48652;BME280;34442;52.362;-1.302;2023-04-25T10:03:33;100576.88;;;9.84;75.68
48652;BME280;34442;52.362;-1.302;2023-04-25T10:06:01;100573.34;;;10.18;74.37
48652;BME280;34442;52.362;-1.302;2023-04-25T10:08:34;100570.22;;;10.50;70.98
48652;BME280;34442;52.362;-1.302;2023-04-25T10:11:06;100571.50;;;10.67;69.14
48652;BME280;34442;52.362;-1.302;2023-04-25T10:13:33;100570.56;;;10.40;71.79
48652;BME280;34442;52.362;-1.302;2023-04-25T10:16:01;100564.06;;;10.62;69.59
48652;BME280;34442;52.362;-1.302;2023-04-25T10:18:28;100568.06;;;11.13;69.70
48652;BME280;34442;52.362;-1.302;2023-04-25T10:20:59;100570.75;;;11.00;69.67
48652;BME280;34442;52.362;-1.302;2023-04-25T10:23:25;100568.94;;;10.39;72.98
48652;BME280;34442;52.362;-1.302;2023-04-25T10:25:52;100566.78;;;10.89;71.56
48652;BME280;34442;52.362;-1.302;2023-04-25T10:28:18;100557.53;;;11.18;69.21
48652;BME280;34442;52.362;-1.302;2023-04-25T10:31:01;100564.94;;;12.02;62.28
48652;BME280;34442;52.362;-1.302;2023-04-25T10:33:40;100562.78;;;12.17;58.45
48652;BME280;34442;52.362;-1.302;2023-04-25T10:36:12;100570.97;;;11.84;66.52
48652;BME280;34442;52.362;-1.302;2023-04-25T10:38:38;100559.56;;;11.89;67.95
48652;BME280;34442;52.362;-1.302;2023-04-25T10:41:06;100559.34;;;11.64;68.35
48652;BME280;34442;52.362;-1.302;2023-04-25T10:43:43;100562.69;;;11.06;67.30
48652;BME280;34442;52.362;-1.302;2023-04-25T10:46:16;100562.06;;;10.91;66.24
48652;BME280;34442;52.362;-1.302;2023-04-25T10:48:51;100571.31;;;10.75;64.51
48652;BME280;34442;52.362;-1.302;2023-04-25T10:51:36;100564.97;;;11.03;61.36
48652;BME280;34442;52.362;-1.302;2023-04-25T10:54:06;100561.44;;;11.35;67.13
48652;BME280;34442;52.362;-1.302;2023-04-25T10:56:33;100567.66;;;11.09;67.61
48652;BME280;34442;52.362;-1.302;2023-04-25T10:59:18;100574.00;;;10.82;62.47
48652;BME280;34442;52.362;-1.302;2023-04-25T11:01:48;100564.16;;;11.49;66.61
48652;BME280;34442;52.362;-1.302;2023-04-25T11:04:32;100557.41;;;12.17;58.86
48652;BME280;34442;52.362;-1.302;2023-04-25T11:09:54;100565.38;;;11.66;60.66
48652;BME280;34442;52.362;-1.302;2023-04-25T11:12:19;100566.59;;;11.97;62.10
48652;BME280;34442;52.362;-1.302;2023-04-25T11:14:44;100564.44;;;12.25;60.15
48652;BME280;34442;52.362;-1.302;2023-04-25T11:17:10;100567.94;;;12.77;59.68
48652;BME280;34442;52.362;-1.302;2023-04-25T11:19:36;100577.72;;;12.72;58.68
48652;BME280;34442;52.362;-1.302;2023-04-25T11:22:02;100568.69;;;11.75;61.70
48652;BME280;34442;52.362;-1.302;2023-04-25T11:24:32;100568.06;;;11.06;58.75
48652;BME280;34442;52.362;-1.302;2023-04-25T11:26:58;100570.56;;;11.08;64.16
48652;BME280;34442;52.362;-1.302;2023-04-25T11:29:27;100576.31;;;12.11;61.77
48652;BME280;34442;52.362;-1.302;2023-04-25T11:31:54;100564.50;;;12.63;60.19
48652;BME280;34442;52.362;-1.302;2023-04-25T11:34:23;100565.09;;;12.59;59.86
48652;BME280;34442;52.362;-1.302;2023-04-25T11:36:49;100561.22;;;11.90;62.13
48652;BME280;34442;52.362;-1.302;2023-04-25T11:39:15;100567.44;;;11.64;63.14
48652;BME280;34442;52.362;-1.302;2023-04-25T11:41:42;100569.09;;;11.52;62.95
48652;BME280;34442;52.362;-1.302;2023-04-25T11:44:07;100564.44;;;12.25;62.10
48652;BME280;34442;52.362;-1.302;2023-04-25T11:46:36;100567.88;;;12.46;59.62
48652;BME280;34442;52.362;-1.302;2023-04-25T11:49:02;100571.09;;;12.16;60.68
48652;BME280;34442;52.362;-1.302;2023-04-25T11:51:27;100563.28;;;11.75;61.21
48652;BME280;34442;52.362;-1.302;2023-04-25T11:53:53;100572.25;;;11.49;61.28
48652;BME280;34442;52.362;-1.302;2023-04-25T11:56:20;100563.09;;;11.63;61.00
48652;BME280;34442;52.362;-1.302;2023-04-25T12:01:32;100564.53;;;11.99;54.08
48652;BME280;34442;52.362;-1.302;2023-04-25T12:03:58;100562.88;;;11.84;59.05
48652;BME280;34442;52.362;-1.302;2023-04-25T12:06:30;100569.63;;;12.27;56.44
48652;BME280;34442;52.362;-1.302;2023-04-25T12:09:06;100561.50;;;12.33;57.16
48652;BME280;34442;52.362;-1.302;2023-04-25T12:11:32;100561.31;;;12.22;58.25
48652;BME280;34442;52.362;-1.302;2023-04-25T12:14:05;100561.97;;;12.17;57.46
48652;BME280;34442;52.362;-1.302;2023-04-25T12:16:43;100572.66;;;12.44;51.91
48652;BME280;34442;52.362;-1.302;2023-04-25T12:19:09;100558.53;;;12.48;57.51
48652;BME280;34442;52.362;-1.302;2023-04-25T12:21:35;100563.88;;;12.55;57.97
48652;BME280;34442;52.362;-1.302;2023-04-25T12:24:23;100562.31;;;12.34;49.98
48652;BME280;34442;52.362;-1.302;2023-04-25T12:27:01;100563.88;;;12.10;54.99
48652;BME280;34442;52.362;-1.302;2023-04-25T12:29:31;100575.13;;;11.47;56.62
48652;BME280;34442;52.362;-1.302;2023-04-25T12:31:57;100566.63;;;11.50;59.38
48652;BME280;34442;52.362;-1.302;2023-04-25T12:34:23;100572.00;;;11.70;58.89
48652;BME280;34442;52.362;-1.302;2023-04-25T12:36:50;100570.13;;;11.77;57.70
48652;BME280;34442;52.362;-1.302;2023-04-25T12:39:17;100568.06;;;11.59;58.16
48652;BME280;34442;52.362;-1.302;2023-04-25T12:41:46;100567.47;;;11.51;57.92
48652;BME280;34442;52.362;-1.302;2023-04-25T12:44:14;100570.56;;;11.61;57.06
48652;BME280;34442;52.362;-1.302;2023-04-25T12:46:40;100575.75;;;11.29;58.01
48652;BME280;34442;52.362;-1.302;2023-04-25T12:49:07;100579.88;;;11.52;57.79